Terminal Aerodrome Forecast
Issued by NWS Mt. Holly, NJ

Home | Current Version | Previous Version | Text Only | Print | Product List | Glossary On
Versions: 1 2 3 4 5 6 7 8 9 10 11 12 13 14 15 16 17 18 19 20 21 22 23
000
FTUS41 KPHI 162353 CCA
TAFRDG
TAF COR
KRDG 162353Z 1700/1724 23005KT P6SM OVC030
      TEMPO 1701/1704 6SM -SHRA OVC025
     FM170400 VRB02KT P6SM OVC025
      TEMPO 1704/1708 5SM -SHRA BR OVC015
     FM170800 VRB02KT 2SM -FZRA BR OVC008
     FM171300 09003KT 1SM -RA BR OVC005
     FM172200 10005KT 2SM -DZ BR OVC003=

USA.gov is the U.S. government's official web portal to all federal, state and local government web resources and services.